sensor_id;sensor_type;location;lat;lon;timestamp;pressure;altitude;pressure_sealevel;temperature;humidity
12879;BME280;20617;49.476;10.986;2022-11-13T00:00:07;99548.03;;;7.43;100.00
12879;BME280;20617;49.476;10.986;2022-11-13T00:02:31;99548.00;;;7.48;100.00
12879;BME280;20617;49.476;10.986;2022-11-13T00:04:55;99541.09;;;7.48;100.00
12879;BME280;20617;49.476;10.986;2022-11-13T00:07:18;99529.91;;;7.45;100.00
12879;BME280;20617;49.476;10.986;2022-11-13T00:09:45;99525.56;;;7.45;100.00
12879;BME280;20617;49.476;10.986;2022-11-13T00:12:08;99530.81;;;7.38;100.00
12879;BME280;20617;49.476;10.986;2022-11-13T00:14:32;99533.44;;;7.32;100.00
12879;BME280;20617;49.476;10.986;2022-11-13T00:16:58;99535.16;;;7.33;100.00
12879;BME280;20617;49.476;10.986;2022-11-13T00:19:21;99537.81;;;7.28;100.00
12879;BME280;20617;49.476;10.986;2022-11-13T00:21:46;99528.28;;;7.29;100.00
12879;BME280;20617;49.476;10.986;2022-11-13T00:24:09;99534.34;;;7.29;100.00
12879;BME280;20617;49.476;10.986;2022-11-13T00:26:35;99524.03;;;7.23;100.00
12879;BME280;20617;49.476;10.986;2022-11-13T00:29:01;99522.31;;;7.22;100.00
12879;BME280;20617;49.476;10.986;2022-11-13T00:31:27;99519.72;;;7.22;100.00
12879;BME280;20617;49.476;10.986;2022-11-13T00:33:50;99520.59;;;7.22;100.00
12879;BME280;20617;49.476;10.986;2022-11-13T00:36:34;99518.88;;;7.21;100.00
12879;BME280;20617;49.476;10.986;2022-11-13T00:38:57;99521.47;;;7.15;100.00
12879;BME280;20617;49.476;10.986;2022-11-13T00:41:21;99525.00;;;7.13;100.00
12879;BME280;20617;49.476;10.986;2022-11-13T00:43:48;99522.41;;;7.11;100.00
12879;BME280;20617;49.476;10.986;2022-11-13T00:46:12;99527.59;;;7.08;100.00
12879;BME280;20617;49.476;10.986;2022-11-13T00:48:35;99515.56;;;7.02;100.00
12879;BME280;20617;49.476;10.986;2022-11-13T00:50:59;99513.88;;;6.97;100.00
12879;BME280;20617;49.476;10.986;2022-11-13T00:53:22;99515.59;;;6.95;100.00
12879;BME280;20617;49.476;10.986;2022-11-13T00:55:46;99509.56;;;6.96;100.00
12879;BME280;20617;49.476;10.986;2022-11-13T00:58:11;99507.81;;;6.98;100.00
12879;BME280;20617;49.476;10.986;2022-11-13T01:00:38;99506.97;;;6.94;100.00
12879;BME280;20617;49.476;10.986;2022-11-13T01:03:03;99498.38;;;6.91;100.00
12879;BME280;20617;49.476;10.986;2022-11-13T01:05:27;99493.31;;;6.75;100.00
12879;BME280;20617;49.476;10.986;2022-11-13T01:07:50;99499.34;;;6.74;100.00
12879;BME280;20617;49.476;10.986;2022-11-13T01:10:14;99504.56;;;6.70;100.00
12879;BME280;20617;49.476;10.986;2022-11-13T01:12:37;99506.31;;;6.68;100.00
12879;BME280;20617;49.476;10.986;2022-11-13T01:15:01;99502.00;;;6.67;100.00
12879;BME280;20617;49.476;10.986;2022-11-13T01:17:28;99499.41;;;6.65;100.00
12879;BME280;20617;49.476;10.986;2022-11-13T01:19:51;99491.69;;;6.64;100.00
12879;BME280;20617;49.476;10.986;2022-11-13T01:22:14;99483.91;;;6.62;100.00
12879;BME280;20617;49.476;10.986;2022-11-13T01:24:38;99480.44;;;6.65;100.00
12879;BME280;20617;49.476;10.986;2022-11-13T01:27:04;99478.75;;;6.64;100.00
12879;BME280;20617;49.476;10.986;2022-11-13T01:29:28;99471.03;;;6.56;100.00
12879;BME280;20617;49.476;10.986;2022-11-13T01:31:51;99481.38;;;6.51;100.00
12879;BME280;20617;49.476;10.986;2022-11-13T01:34:17;99475.41;;;6.42;100.00
12879;BME280;20617;49.476;10.986;2022-11-13T01:36:40;99482.34;;;6.38;100.00
12879;BME280;20617;49.476;10.986;2022-11-13T01:39:04;99463.41;;;6.33;100.00
12879;BME280;20617;49.476;10.986;2022-11-13T01:41:30;99474.63;;;6.32;100.00
12879;BME280;20617;49.476;10.986;2022-11-13T01:43:54;99466.91;;;6.26;100.00
12879;BME280;20617;49.476;10.986;2022-11-13T01:46:24;99468.63;;;6.21;100.00
12879;BME280;20617;49.476;10.986;2022-11-13T01:48:50;99458.28;;;6.19;100.00
12879;BME280;20617;49.476;10.986;2022-11-13T01:51:23;99449.69;;;6.20;100.00
12879;BME280;20617;49.476;10.986;2022-11-13T01:53:49;99450.53;;;6.19;100.00
12879;BME280;20617;49.476;10.986;2022-11-13T01:56:13;99445.38;;;6.19;100.00
12879;BME280;20617;49.476;10.986;2022-11-13T01:58:38;99439.38;;;6.17;100.00
12879;BME280;20617;49.476;10.986;2022-11-13T02:01:02;99429.03;;;6.14;100.00
12879;BME280;20617;49.476;10.986;2022-11-13T02:03:26;99421.31;;;6.08;100.00
12879;BME280;20617;49.476;10.986;2022-11-13T02:05:49;99415.28;;;6.06;100.00
12879;BME280;20617;49.476;10.986;2022-11-13T02:08:15;99417.03;;;5.98;100.00
12879;BME280;20617;49.476;10.986;2022-11-13T02:10:39;99423.06;;;5.87;100.00
12879;BME280;20617;49.476;10.986;2022-11-13T02:13:02;99422.22;;;5.92;100.00
12879;BME280;20617;49.476;10.986;2022-11-13T02:15:28;99414.47;;;5.92;100.00
12879;BME280;20617;49.476;10.986;2022-11-13T02:17:57;99413.59;;;5.99;100.00
12879;BME280;20617;49.476;10.986;2022-11-13T02:20:28;99408.38;;;6.05;100.00
12879;BME280;20617;49.476;10.986;2022-11-13T02:22:58;99405.81;;;6.08;100.00
12879;BME280;20617;49.476;10.986;2022-11-13T02:25:29;99393.69;;;6.15;100.00
12879;BME280;20617;49.476;10.986;2022-11-13T02:27:53;99388.47;;;6.19;100.00
12879;BME280;20617;49.476;10.986;2022-11-13T02:30:18;99386.75;;;6.23;100.00
12879;BME280;20617;49.476;10.986;2022-11-13T02:32:48;99394.50;;;6.26;100.00
12879;BME280;20617;49.476;10.986;2022-11-13T02:35:14;99389.31;;;6.26;100.00
12879;BME280;20617;49.476;10.986;2022-11-13T02:37:40;99385.84;;;6.27;100.00
12879;BME280;20617;49.476;10.986;2022-11-13T02:40:07;99381.56;;;6.26;100.00
12879;BME280;20617;49.476;10.986;2022-11-13T02:42:33;99378.19;;;6.15;100.00
12879;BME280;20617;49.476;10.986;2022-11-13T02:44:56;99373.91;;;6.07;100.00
12879;BME280;20617;49.476;10.986;2022-11-13T02:47:20;99379.09;;;6.06;100.00
12879;BME280;20617;49.476;10.986;2022-11-13T02:49:44;99368.84;;;5.94;100.00
12879;BME280;20617;49.476;10.986;2022-11-13T02:52:07;99361.94;;;5.86;100.00
12879;BME280;20617;49.476;10.986;2022-11-13T02:54:31;99374.88;;;5.85;100.00
12879;BME280;20617;49.476;10.986;2022-11-13T02:56:54;99363.69;;;5.81;100.00
12879;BME280;20617;49.476;10.986;2022-11-13T02:59:20;99370.59;;;5.82;100.00
12879;BME280;20617;49.476;10.986;2022-11-13T03:01:44;99363.69;;;5.81;100.00
12879;BME280;20617;49.476;10.986;2022-11-13T03:04:07;99361.09;;;5.83;100.00
12879;BME280;20617;49.476;10.986;2022-11-13T03:06:30;99349.06;;;5.82;100.00
12879;BME280;20617;49.476;10.986;2022-11-13T03:08:54;99348.19;;;5.81;100.00
12879;BME280;20617;49.476;10.986;2022-11-13T03:11:17;99345.59;;;5.78;100.00
12879;BME280;20617;49.476;10.986;2022-11-13T03:13:42;99347.34;;;5.75;100.00
12879;BME280;20617;49.476;10.986;2022-11-13T03:16:11;99337.03;;;5.75;100.00
12879;BME280;20617;49.476;10.986;2022-11-13T03:18:35;99335.31;;;5.69;100.00
12879;BME280;20617;49.476;10.986;2022-11-13T03:21:05;99334.47;;;5.67;100.00
12879;BME280;20617;49.476;10.986;2022-11-13T03:23:28;99337.09;;;5.62;100.00
12879;BME280;20617;49.476;10.986;2022-11-13T03:25:52;99337.13;;;5.56;100.00
12879;BME280;20617;49.476;10.986;2022-11-13T03:28:15;99335.38;;;5.58;100.00
12879;BME280;20617;49.476;10.986;2022-11-13T03:30:38;99333.69;;;5.59;100.00
12879;BME280;20617;49.476;10.986;2022-11-13T03:33:06;99331.97;;;5.56;100.00
12879;BME280;20617;49.476;10.986;2022-11-13T03:35:29;99330.25;;;5.49;100.00
12879;BME280;20617;49.476;10.986;2022-11-13T03:38:03;99329.41;;;5.45;100.00
12879;BME280;20617;49.476;10.986;2022-11-13T03:40:27;99320.78;;;5.47;100.00
12879;BME280;20617;49.476;10.986;2022-11-13T03:42:50;99322.53;;;5.46;100.00
12879;BME280;20617;49.476;10.986;2022-11-13T03:45:14;99319.06;;;5.53;100.00
12879;BME280;20617;49.476;10.986;2022-11-13T03:47:37;99317.28;;;5.58;100.00
12879;BME280;20617;49.476;10.986;2022-11-13T03:50:04;99323.28;;;5.66;100.00
12879;BME280;20617;49.476;10.986;2022-11-13T03:52:27;99312.06;;;5.69;100.00
12879;BME280;20617;49.476;10.986;2022-11-13T03:54:50;99313.81;;;5.68;100.00
12879;BME280;20617;49.476;10.986;2022-11-13T03:57:14;99309.56;;;5.61;100.00
12879;BME280;20617;49.476;10.986;2022-11-13T03:59:38;99308.72;;;5.55;100.00
12879;BME280;20617;49.476;10.986;2022-11-13T04:02:01;99300.16;;;5.42;100.00
12879;BME280;20617;49.476;10.986;2022-11-13T04:04:25;99312.22;;;5.41;100.00
12879;BME280;20617;49.476;10.986;2022-11-13T04:06:51;99306.19;;;5.44;100.00
12879;BME280;20617;49.476;10.986;2022-11-13T04:09:14;99305.34;;;5.42;100.00
12879;BME280;20617;49.476;10.986;2022-11-13T04:11:37;99301.88;;;5.43;100.00
12879;BME280;20617;49.476;10.986;2022-11-13T04:14:01;99293.28;;;5.38;100.00
12879;BME280;20617;49.476;10.986;2022-11-13T04:16:25;99302.84;;;5.24;100.00
12879;BME280;20617;49.476;10.986;2022-11-13T04:18:49;99294.25;;;5.17;100.00
12879;BME280;20617;49.476;10.986;2022-11-13T04:21:12;99293.44;;;5.04;100.00
12879;BME280;20617;49.476;10.986;2022-11-13T04:23:38;99294.34;;;4.85;100.00
12879;BME280;20617;49.476;10.986;2022-11-13T04:26:03;99303.81;;;4.75;100.00
12879;BME280;20617;49.476;10.986;2022-11-13T04:28:26;99316.69;;;4.80;100.00
12879;BME280;20617;49.476;10.986;2022-11-13T04:30:52;99319.28;;;4.89;100.00
12879;BME280;20617;49.476;10.986;2022-11-13T04:33:16;99305.50;;;4.91;100.00
12879;BME280;20617;49.476;10.986;2022-11-13T04:35:42;99303.78;;;4.87;100.00
12879;BME280;20617;49.476;10.986;2022-11-13T04:38:05;99293.50;;;4.89;100.00
12879;BME280;20617;49.476;10.986;2022-11-13T04:40:31;99290.00;;;4.91;100.00
12879;BME280;20617;49.476;10.986;2022-11-13T04:42:54;99286.56;;;4.94;100.00
12879;BME280;20617;49.476;10.986;2022-11-13T04:45:16;99289.16;;;4.92;100.00
12879;BME280;20617;49.476;10.986;2022-11-13T04:47:40;99287.47;;;4.84;100.00
12879;BME280;20617;49.476;10.986;2022-11-13T04:50:03;99291.75;;;4.92;100.00
12879;BME280;20617;49.476;10.986;2022-11-13T04:52:27;99293.41;;;5.03;100.00
12879;BME280;20617;49.476;10.986;2022-11-13T04:54:50;99282.22;;;5.05;100.00
12879;BME280;20617;49.476;10.986;2022-11-13T04:57:16;99282.22;;;5.05;100.00
12879;BME280;20617;49.476;10.986;2022-11-13T04:59:39;99289.16;;;4.92;100.00
12879;BME280;20617;49.476;10.986;2022-11-13T05:02:02;99279.75;;;4.78;100.00
12879;BME280;20617;49.476;10.986;2022-11-13T05:04:26;99284.91;;;4.78;100.00
12879;BME280;20617;49.476;10.986;2022-11-13T05:06:49;99281.47;;;4.75;100.00
12879;BME280;20617;49.476;10.986;2022-11-13T05:09:13;99275.44;;;4.70;100.00
12879;BME280;20617;49.476;10.986;2022-11-13T05:11:36;99274.59;;;4.70;100.00
12879;BME280;20617;49.476;10.986;2022-11-13T05:14:04;99266.00;;;4.69;100.00
12879;BME280;20617;49.476;10.986;2022-11-13T05:16:28;99266.03;;;4.63;100.00
12879;BME280;20617;49.476;10.986;2022-11-13T05:18:54;99265.16;;;4.58;100.00
12879;BME280;20617;49.476;10.986;2022-11-13T05:21:17;99265.22;;;4.37;100.00
12879;BME280;20617;49.476;10.986;2022-11-13T05:23:40;99271.22;;;4.17;100.00
12879;BME280;20617;49.476;10.986;2022-11-13T05:26:06;99265.19;;;3.97;100.00
12879;BME280;20617;49.476;10.986;2022-11-13T05:28:30;99267.78;;;3.91;100.00
12879;BME280;20617;49.476;10.986;2022-11-13T05:31:01;99265.19;;;3.83;100.00
12879;BME280;20617;49.476;10.986;2022-11-13T05:33:27;99258.31;;;3.71;100.00
12879;BME280;20617;49.476;10.986;2022-11-13T05:35:50;99269.44;;;3.53;100.00
12879;BME280;20617;49.476;10.986;2022-11-13T05:38:14;99256.53;;;3.46;100.00
12879;BME280;20617;49.476;10.986;2022-11-13T05:40:37;99248.78;;;3.29;100.00
12879;BME280;20617;49.476;10.986;2022-11-13T05:43:00;99243.59;;;3.18;100.00
12879;BME280;20617;49.476;10.986;2022-11-13T05:45:26;99249.63;;;3.23;100.00
12879;BME280;20617;49.476;10.986;2022-11-13T05:47:52;99251.34;;;3.27;100.00
12879;BME280;20617;49.476;10.986;2022-11-13T05:50:16;99243.63;;;3.32;100.00
12879;BME280;20617;49.476;10.986;2022-11-13T05:52:39;99236.78;;;3.37;100.00
12879;BME280;20617;49.476;10.986;2022-11-13T05:55:04;99232.50;;;3.37;100.00
12879;BME280;20617;49.476;10.986;2022-11-13T05:57:28;99229.94;;;3.37;100.00
12879;BME280;20617;49.476;10.986;2022-11-13T05:59:51;99228.19;;;3.43;100.00
12879;BME280;20617;49.476;10.986;2022-11-13T06:02:14;99231.69;;;3.49;100.00
12879;BME280;20617;49.476;10.986;2022-11-13T06:04:41;99223.06;;;3.43;100.00
12879;BME280;20617;49.476;10.986;2022-11-13T06:07:05;99223.06;;;3.41;100.00
12879;BME280;20617;49.476;10.986;2022-11-13T06:09:28;99228.19;;;3.29;100.00
12879;BME280;20617;49.476;10.986;2022-11-13T06:11:52;99224.75;;;3.34;100.00
12879;BME280;20617;49.476;10.986;2022-11-13T06:14:15;99227.38;;;3.47;100.00
12879;BME280;20617;49.476;10.986;2022-11-13T06:16:39;99211.06;;;3.54;100.00
12879;BME280;20617;49.476;10.986;2022-11-13T06:19:04;99213.66;;;3.54;100.00
12879;BME280;20617;49.476;10.986;2022-11-13T06:21:32;99202.50;;;3.56;100.00
12879;BME280;20617;49.476;10.986;2022-11-13T06:23:57;99202.50;;;3.47;100.00
12879;BME280;20617;49.476;10.986;2022-11-13T06:26:22;99211.91;;;3.51;100.00
12879;BME280;20617;49.476;10.986;2022-11-13T06:28:46;99206.78;;;3.56;100.00
12879;BME280;20617;49.476;10.986;2022-11-13T06:31:12;99212.81;;;3.64;100.00
12879;BME280;20617;49.476;10.986;2022-11-13T06:33:36;99216.22;;;3.69;100.00
12879;BME280;20617;49.476;10.986;2022-11-13T06:36:00;99219.69;;;3.77;100.00
12879;BME280;20617;49.476;10.986;2022-11-13T06:38:29;99217.97;;;3.82;100.00
12879;BME280;20617;49.476;10.986;2022-11-13T06:40:52;99214.53;;;3.77;100.00
12879;BME280;20617;49.476;10.986;2022-11-13T06:43:15;99212.78;;;3.55;100.00
12879;BME280;20617;49.476;10.986;2022-11-13T06:45:39;99211.03;;;3.37;100.00
12879;BME280;20617;49.476;10.986;2022-11-13T06:48:02;99207.59;;;3.27;100.00
12879;BME280;20617;49.476;10.986;2022-11-13T06:50:26;99219.59;;;3.27;100.00
12879;BME280;20617;49.476;10.986;2022-11-13T06:52:49;99227.31;;;3.21;100.00
12879;BME280;20617;49.476;10.986;2022-11-13T06:55:16;99232.44;;;3.19;100.00
12879;BME280;20617;49.476;10.986;2022-11-13T06:57:39;99235.91;;;3.29;100.00
12879;BME280;20617;49.476;10.986;2022-11-13T07:00:04;99231.63;;;3.40;100.00
12879;BME280;20617;49.476;10.986;2022-11-13T07:02:27;99221.38;;;3.46;100.00
12879;BME280;20617;49.476;10.986;2022-11-13T07:04:51;99210.19;;;3.52;100.00
12879;BME280;20617;49.476;10.986;2022-11-13T07:07:14;99215.38;;;3.61;100.00
12879;BME280;20617;49.476;10.986;2022-11-13T07:09:37;99217.13;;;3.70;100.00
12879;BME280;20617;49.476;10.986;2022-11-13T07:12:04;99211.13;;;3.78;100.00
12879;BME280;20617;49.476;10.986;2022-11-13T07:14:27;99190.50;;;3.84;100.00
12879;BME280;20617;49.476;10.986;2022-11-13T07:16:51;99193.94;;;3.77;100.00
12879;BME280;20617;49.476;10.986;2022-11-13T07:19:29;99201.66;;;3.67;100.00
12879;BME280;20617;49.476;10.986;2022-11-13T07:21:53;99193.94;;;3.62;100.00
12879;BME280;20617;49.476;10.986;2022-11-13T07:24:16;99183.63;;;3.74;100.00
12879;BME280;20617;49.476;10.986;2022-11-13T07:26:39;99186.19;;;3.80;100.00
12879;BME280;20617;49.476;10.986;2022-11-13T07:29:05;99177.59;;;3.89;100.00
12879;BME280;20617;49.476;10.986;2022-11-13T07:31:29;99186.19;;;3.94;100.00
12879;BME280;20617;49.476;10.986;2022-11-13T07:33:52;99185.31;;;3.98;100.00
12879;BME280;20617;49.476;10.986;2022-11-13T07:36:15;99170.75;;;3.96;100.00
12879;BME280;20617;49.476;10.986;2022-11-13T07:38:39;99154.44;;;3.89;100.00
12879;BME280;20617;49.476;10.986;2022-11-13T07:41:03;99166.47;;;3.93;100.00
12879;BME280;20617;49.476;10.986;2022-11-13T07:43:26;99166.44;;;3.92;100.00
12879;BME280;20617;49.476;10.986;2022-11-13T07:45:52;99153.59;;;3.84;100.00
12879;BME280;20617;49.476;10.986;2022-11-13T07:48:16;99163.88;;;3.76;100.00
12879;BME280;20617;49.476;10.986;2022-11-13T07:50:40;99158.72;;;3.82;100.00
12879;BME280;20617;49.476;10.986;2022-11-13T07:53:05;99159.56;;;3.92;100.00
12879;BME280;20617;49.476;10.986;2022-11-13T07:55:29;99163.88;;;3.98;100.00
12879;BME280;20617;49.476;10.986;2022-11-13T07:57:54;99144.97;;;4.00;100.00
12879;BME280;20617;49.476;10.986;2022-11-13T08:00:19;99154.41;;;4.03;100.00
12879;BME280;20617;49.476;10.986;2022-11-13T08:02:45;99134.66;;;4.08;100.00
12879;BME280;20617;49.476;10.986;2022-11-13T08:05:09;99141.50;;;4.15;100.00
12879;BME280;20617;49.476;10.986;2022-11-13T08:07:32;99149.25;;;4.03;100.00
12879;BME280;20617;49.476;10.986;2022-11-13T08:09:55;99141.53;;;4.06;100.00
12879;BME280;20617;49.476;10.986;2022-11-13T08:12:19;99136.41;;;3.97;100.00
12879;BME280;20617;49.476;10.986;2022-11-13T08:14:42;99132.13;;;3.93;100.00
12879;BME280;20617;49.476;10.986;2022-11-13T08:17:06;99132.97;;;4.02;100.00
12879;BME280;20617;49.476;10.986;2022-11-13T08:19:31;99127.78;;;4.10;100.00
12879;BME280;20617;49.476;10.986;2022-11-13T08:21:55;99126.06;;;4.09;100.00
12879;BME280;20617;49.476;10.986;2022-11-13T08:24:18;99117.50;;;4.01;100.00
12879;BME280;20617;49.476;10.986;2022-11-13T08:26:41;99121.81;;;4.02;100.00
12879;BME280;20617;49.476;10.986;2022-11-13T08:29:05;99126.06;;;4.06;100.00
12879;BME280;20617;49.476;10.986;2022-11-13T08:31:28;99115.78;;;4.11;100.00
12879;BME280;20617;49.476;10.986;2022-11-13T08:33:52;99119.19;;;4.14;100.00
12879;BME280;20617;49.476;10.986;2022-11-13T08:36:18;99102.91;;;3.92;100.00
12879;BME280;20617;49.476;10.986;2022-11-13T08:38:44;99094.31;;;4.01;100.00
12879;BME280;20617;49.476;10.986;2022-11-13T08:41:10;99086.56;;;4.05;100.00
12879;BME280;20617;49.476;10.986;2022-11-13T08:43:33;99079.69;;;4.12;100.00
12879;BME280;20617;49.476;10.986;2022-11-13T08:45:56;99077.97;;;4.14;100.00
12879;BME280;20617;49.476;10.986;2022-11-13T08:48:20;99061.69;;;4.07;100.00
12879;BME280;20617;49.476;10.986;2022-11-13T08:50:44;99063.38;;;4.05;100.00
12879;BME280;20617;49.476;10.986;2022-11-13T08:53:10;99058.22;;;4.12;100.00
12879;BME280;20617;49.476;10.986;2022-11-13T08:55:33;99062.56;;;3.99;100.00
12879;BME280;20617;49.476;10.986;2022-11-13T08:57:58;99066.88;;;3.81;100.00
12879;BME280;20617;49.476;10.986;2022-11-13T09:00:22;99067.72;;;3.86;100.00
12879;BME280;20617;49.476;10.986;2022-11-13T09:02:45;99048.78;;;3.98;100.00
12879;BME280;20617;49.476;10.986;2022-11-13T09:05:09;99059.09;;;4.07;100.00
12879;BME280;20617;49.476;10.986;2022-11-13T09:07:33;99075.38;;;4.17;100.00
12879;BME280;20617;49.476;10.986;2022-11-13T09:09:59;99062.47;;;4.23;100.00
12879;BME280;20617;49.476;10.986;2022-11-13T09:12:22;99050.44;;;4.25;100.00
12879;BME280;20617;49.476;10.986;2022-11-13T09:14:46;99055.56;;;4.35;100.00
12879;BME280;20617;49.476;10.986;2022-11-13T09:17:10;99054.63;;;4.45;100.00
12879;BME280;20617;49.476;10.986;2022-11-13T09:19:33;99041.69;;;4.59;100.00
12879;BME280;20617;49.476;10.986;2022-11-13T09:21:57;99055.41;;;4.68;100.00
12879;BME280;20617;49.476;10.986;2022-11-13T09:24:20;99059.59;;;4.86;100.00
12879;BME280;20617;49.476;10.986;2022-11-13T09:26:47;99055.19;;;4.99;100.00
12879;BME280;20617;49.476;10.986;2022-11-13T09:29:10;99045.66;;;5.10;100.00
12879;BME280;20617;49.476;10.986;2022-11-13T09:31:33;99049.00;;;5.20;100.00
12879;BME280;20617;49.476;10.986;2022-11-13T09:33:57;99038.63;;;5.31;100.00
12879;BME280;20617;49.476;10.986;2022-11-13T09:36:21;99035.09;;;5.39;100.00
12879;BME280;20617;49.476;10.986;2022-11-13T09:38:45;99034.09;;;5.54;100.00
12879;BME280;20617;49.476;10.986;2022-11-13T09:41:10;99038.31;;;5.63;100.00
12879;BME280;20617;49.476;10.986;2022-11-13T09:43:41;99029.59;;;5.75;100.00
12879;BME280;20617;49.476;10.986;2022-11-13T09:46:11;99034.59;;;5.95;100.00
12879;BME280;20617;49.476;10.986;2022-11-13T09:48:45;99022.41;;;6.06;100.00
12879;BME280;20617;49.476;10.986;2022-11-13T09:51:14;99027.38;;;6.21;100.00
12879;BME280;20617;49.476;10.986;2022-11-13T09:53:39;99025.56;;;6.28;100.00
12879;BME280;20617;49.476;10.986;2022-11-13T09:56:13;99032.34;;;6.38;100.00
12879;BME280;20617;49.476;10.986;2022-11-13T09:58:46;99022.69;;;6.52;100.00
12879;BME280;20617;49.476;10.986;2022-11-13T10:01:16;99020.72;;;6.68;100.00
12879;BME280;20617;49.476;10.986;2022-11-13T10:03:46;99016.22;;;6.83;100.00
12879;BME280;20617;49.476;10.986;2022-11-13T10:06:28;99017.69;;;6.99;100.00
12879;BME280;20617;49.476;10.986;2022-11-13T10:08:56;99002.91;;;7.07;100.00
12879;BME280;20617;49.476;10.986;2022-11-13T10:11:26;99002.81;;;7.13;100.00
12879;BME280;20617;49.476;10.986;2022-11-13T10:14:00;99002.66;;;7.22;100.00
12879;BME280;20617;49.476;10.986;2022-11-13T10:16:30;98997.31;;;7.32;100.00
12879;BME280;20617;49.476;10.986;2022-11-13T10:18:55;99003.22;;;7.40;100.00
12879;BME280;20617;49.476;10.986;2022-11-13T10:21:28;98998.66;;;7.53;100.00
12879;BME280;20617;49.476;10.986;2022-11-13T10:23:55;99013.97;;;7.65;100.00
12879;BME280;20617;49.476;10.986;2022-11-13T10:26:21;99004.22;;;7.79;100.00
12879;BME280;20617;49.476;10.986;2022-11-13T10:28:45;98997.88;;;7.94;100.00
12879;BME280;20617;49.476;10.986;2022-11-13T10:31:13;98979.41;;;8.11;100.00
12879;BME280;20617;49.476;10.986;2022-11-13T10:33:36;98977.38;;;8.25;100.00
12879;BME280;20617;49.476;10.986;2022-11-13T10:38:47;98963.88;;;8.51;100.00
12879;BME280;20617;49.476;10.986;2022-11-13T10:41:12;98954.25;;;8.56;100.00
12879;BME280;20617;49.476;10.986;2022-11-13T10:43:52;98954.78;;;8.71;100.00
12879;BME280;20617;49.476;10.986;2022-11-13T10:46:20;98945.81;;;8.84;100.00
12879;BME280;20617;49.476;10.986;2022-11-13T10:48:44;98936.81;;;8.99;100.00
12879;BME280;20617;49.476;10.986;2022-11-13T10:51:20;98934.69;;;9.13;100.00
12879;BME280;20617;49.476;10.986;2022-11-13T10:53:47;98919.84;;;9.18;100.00
12879;BME280;20617;49.476;10.986;2022-11-13T10:56:18;98921.28;;;9.30;100.00
12879;BME280;20617;49.476;10.986;2022-11-13T10:58:42;98908.91;;;9.40;100.00
12879;BME280;20617;49.476;10.986;2022-11-13T11:01:13;98890.38;;;9.52;100.00
12879;BME280;20617;49.476;10.986;2022-11-13T11:03:47;98898.91;;;9.57;100.00
12879;BME280;20617;49.476;10.986;2022-11-13T11:06:11;98885.78;;;9.62;100.00
12879;BME280;20617;49.476;10.986;2022-11-13T11:08:35;98888.09;;;9.71;100.00
12879;BME280;20617;49.476;10.986;2022-11-13T11:11:00;98874.09;;;9.77;100.00
12879;BME280;20617;49.476;10.986;2022-11-13T11:13:38;98874.53;;;9.91;100.00
12879;BME280;20617;49.476;10.986;2022-11-13T11:16:02;98873.38;;;10.01;100.00
12879;BME280;20617;49.476;10.986;2022-11-13T11:18:31;98864.38;;;10.11;100.00
12879;BME280;20617;49.476;10.986;2022-11-13T11:21:04;98863.22;;;10.22;100.00
12879;BME280;20617;49.476;10.986;2022-11-13T11:23:36;98862.03;;;10.32;100.00
12879;BME280;20617;49.476;10.986;2022-11-13T11:26:07;98863.38;;;10.45;100.00
12879;BME280;20617;49.476;10.986;2022-11-13T11:28:35;98850.91;;;10.55;100.00
12879;BME280;20617;49.476;10.986;2022-11-13T11:31:07;98852.25;;;10.67;100.00
12879;BME280;20617;49.476;10.986;2022-11-13T11:33:36;98846.00;;;10.72;100.00
12879;BME280;20617;49.476;10.986;2022-11-13T11:36:16;98838.78;;;10.80;100.00
12879;BME280;20617;49.476;10.986;2022-11-13T11:38:49;98828.25;;;10.83;100.00
12879;BME280;20617;49.476;10.986;2022-11-13T11:41:18;98827.25;;;10.87;100.00
12879;BME280;20617;49.476;10.986;2022-11-13T11:43:43;98822.69;;;10.94;100.00
12879;BME280;20617;49.476;10.986;2022-11-13T11:46:10;98813.75;;;11.01;100.00
12879;BME280;20617;49.476;10.986;2022-11-13T11:48:34;98787.66;;;11.03;100.00
12879;BME280;20617;49.476;10.986;2022-11-13T11:51:02;98784.09;;;11.05;100.00
12879;BME280;20617;49.476;10.986;2022-11-13T11:53:40;98784.53;;;11.17;100.00
12879;BME280;20617;49.476;10.986;2022-11-13T11:56:14;98772.19;;;11.22;100.00
12879;BME280;20617;49.476;10.986;2022-11-13T11:59:01;98755.50;;;11.27;100.00
12879;BME280;20617;49.476;10.986;2022-11-13T12:01:37;98754.53;;;11.30;100.00
12879;BME280;20617;49.476;10.986;2022-11-13T12:04:14;98743.03;;;11.36;100.00
12879;BME280;20617;49.476;10.986;2022-11-13T12:06:48;98743.63;;;11.42;100.00
12879;BME280;20617;49.476;10.986;2022-11-13T12:09:21;98740.78;;;11.48;100.00
12879;BME280;20617;49.476;10.986;2022-11-13T12:11:51;98737.00;;;11.57;100.00
12879;BME280;20617;49.476;10.986;2022-11-13T12:14:26;98741.25;;;11.60;100.00
12879;BME280;20617;49.476;10.986;2022-11-13T12:17:04;98741.00;;;11.66;100.00
12879;BME280;20617;49.476;10.986;2022-11-13T12:19:47;98741.63;;;11.72;100.00
12879;BME280;20617;49.476;10.986;2022-11-13T12:22:21;98734.59;;;11.74;100.00
12879;BME280;20617;49.476;10.986;2022-11-13T12:25:02;98722.94;;;11.83;100.00
12879;BME280;20617;49.476;10.986;2022-11-13T12:27:33;98723.63;;;11.88;100.00
12879;BME280;20617;49.476;10.986;2022-11-13T12:30:13;98726.00;;;11.94;100.00
12879;BME280;20617;49.476;10.986;2022-11-13T12:32:58;98721.44;;;11.99;100.00
12879;BME280;20617;49.476;10.986;2022-11-13T12:35:24;98712.56;;;12.04;100.00
12879;BME280;20617;49.476;10.986;2022-11-13T12:37:51;98708.03;;;12.09;100.00
12879;BME280;20617;49.476;10.986;2022-11-13T12:40:26;98712.03;;;12.17;100.00
12879;BME280;20617;49.476;10.986;2022-11-13T12:45:57;98704.97;;;12.19;100.00